Time;durP1;ratioP1;P1;durP2;ratioP2;P2;SDS_P1;SDS_P2;PMS_P1;PMS_P2;Temp;Humidity;BMP_temperature;BMP_pressure;BME280_temperature;BME280_humidity;BME280_pressure;Samples;Min_cycle;Max_cycle;Signal;HPM_P1;HPM_P2
2024/01/26 00:02:01;;;;;;;1.10;1.00;;;;;;;10.63;76.55;98479.22;104639;1269;60945;-63
2024/01/26 00:05:14;;;;;;;1.60;1.40;;;;;;;10.76;76.07;98483.75;104636;1266;73971;-60
2024/01/26 00:08:26;;;;;;;1.20;1.20;;;;;;;10.83;76.02;98482.02;104774;1260;69073;-63
2024/01/26 00:11:38;;;;;;;1.20;1.10;;;;;;;10.91;75.12;98485.05;104563;1264;72667;-63
2024/01/26 00:14:50;;;;;;;1.40;1.30;;;;;;;10.92;74.98;98484.50;104434;1266;60850;-64
2024/01/26 00:18:03;;;;;;;2.00;1.70;;;;;;;10.85;74.19;98486.30;105050;1263;60554;-63
2024/01/26 00:21:18;;;;;;;1.40;1.30;;;;;;;10.82;74.06;98487.51;104506;1260;76246;-63
2024/01/26 00:24:30;;;;;;;1.40;1.20;;;;;;;10.73;74.26;98494.05;104724;1266;69191;-62
2024/01/26 00:27:43;;;;;;;1.40;1.20;;;;;;;10.64;74.75;98498.10;104370;1259;72400;-62
2024/01/26 00:30:57;;;;;;;1.00;1.00;;;;;;;10.56;75.16;98496.00;104827;1252;60667;-63
2024/01/26 00:34:09;;;;;;;0.70;0.70;;;;;;;10.53;75.14;98494.02;104643;1258;60435;-63
2024/01/26 00:37:21;;;;;;;0.80;0.80;;;;;;;10.58;74.53;98498.81;104645;1275;73790;-63
2024/01/26 00:40:33;;;;;;;0.80;0.80;;;;;;;10.51;74.51;98498.67;104811;1260;69950;-63
2024/01/26 00:43:07;;;;;;;1.40;0.80;;;;;;;10.52;74.72;98504.27;105288;1258;72905;-62
2024/01/26 00:46:00;;;;;;;1.10;0.90;;;;;;;10.48;75.06;98507.63;104651;1254;60865;-62
2024/01/26 00:49:13;;;;;;;0.80;0.80;;;;;;;10.51;74.89;98505.69;104818;1259;60472;-62
2024/01/26 00:59:44;;;;;;;0.60;0.60;;;;;;;10.36;76.09;98505.91;104697;1254;73187;-62
2024/01/26 01:07:17;;;;;;;0.70;0.70;;;;;;;10.35;76.02;98510.87;104841;1257;61873;-62
2024/01/26 01:14:18;;;;;;;0.80;0.80;;;;;;;10.45;75.41;98518.88;104387;1272;69698;-62
2024/01/26 01:17:33;;;;;;;0.60;0.60;;;;;;;10.42;75.33;98519.41;105311;1257;72461;-63
2024/01/26 01:20:45;;;;;;;0.80;0.80;;;;;;;10.42;75.40;98519.58;105104;1254;60776;-63
2024/01/26 01:23:57;;;;;;;1.00;0.80;;;;;;;10.49;74.94;98525.48;104811;1258;60124;-63
2024/01/26 01:26:37;;;;;;;0.80;0.80;;;;;;;10.47;74.58;98522.95;104603;1259;73809;-64
2024/01/26 01:29:50;;;;;;;1.20;1.10;;;;;;;10.44;74.75;98521.58;104702;1254;69325;-64
2024/01/26 01:38:14;;;;;;;0.90;0.90;;;;;;;9.89;86.05;98525.58;102489;1295;605081;-63
2024/01/26 01:41:32;;;;;;;0.90;0.90;;;;;;;10.96;72.49;98526.10;103226;1272;60614;-63
2024/01/26 01:44:45;;;;;;;0.80;0.80;;;;;;;10.97;71.33;98521.52;104013;1267;59811;-63
2024/01/26 01:50:50;;;;;;;1.10;1.00;;;;;;;10.74;71.65;98530.99;100066;1266;5464957;-63
2024/01/26 01:54:05;;;;;;;0.80;0.80;;;;;;;10.79;71.62;98532.56;103724;1272;72367;-63
2024/01/26 01:57:18;;;;;;;1.00;0.90;;;;;;;10.92;71.09;98533.02;104098;1270;60974;-64
2024/01/26 02:00:31;;;;;;;1.10;1.00;;;;;;;10.84;70.37;98542.45;103840;1266;59716;-63
2024/01/26 06:00:29;;;;;;;4.60;3.60;;;;;;;11.22;63.77;98747.45;104004;1267;59827;-63
2024/01/26 06:03:41;;;;;;;4.80;3.60;;;;;;;11.22;63.26;98750.61;104096;1266;59807;-61
2024/01/26 06:06:54;;;;;;;3.40;3.00;;;;;;;11.20;62.74;98758.41;104024;1266;71204;-62
2024/01/26 06:09:29;;;;;;;3.10;2.80;;;;;;;11.10;62.63;98750.45;99753;1265;5538634;-60
2024/01/26 06:16:32;;;;;;;3.30;3.00;;;;;;;11.15;62.06;98767.17;103965;1269;60616;-61
2024/01/26 06:19:45;;;;;;;3.70;3.30;;;;;;;11.08;61.78;98770.57;104227;1265;59658;-61
2024/01/26 06:22:57;;;;;;;3.10;2.80;;;;;;;11.07;61.87;98774.45;104552;1264;72499;-65
2024/01/26 06:26:09;;;;;;;2.60;2.40;;;;;;;11.06;61.72;98776.10;103949;1265;69089;-66
2024/01/26 06:28:37;;;;;;;3.50;2.90;;;;;;;10.97;61.73;98777.16;103934;1269;71987;-66
2024/01/26 06:31:49;;;;;;;3.10;2.80;;;;;;;10.97;61.93;98778.92;103980;1265;61663;-63
2024/01/26 06:35:02;;;;;;;3.40;3.10;;;;;;;10.97;61.76;98783.28;104132;1263;59843;-63
2024/01/26 06:38:13;;;;;;;2.40;2.20;;;;;;;10.96;61.91;98789.84;106711;1263;73330;-69
2024/01/26 06:41:31;;;;;;;3.20;2.90;;;;;;;10.96;62.16;98792.98;108290;1253;68909;-66
2024/01/26 06:52:31;;;;;;;2.10;2.00;;;;;;;11.04;63.18;98801.77;108451;1253;60865;-61
2024/01/26 06:55:43;;;;;;;1.90;1.80;;;;;;;11.09;63.34;98808.55;108202;1253;72872;-62
2024/01/26 06:58:57;;;;;;;2.00;1.80;;;;;;;11.10;63.57;98811.66;108274;1253;68834;-60
2024/01/26 07:02:09;;;;;;;1.90;1.70;;;;;;;11.13;63.62;98813.77;108198;1253;72195;-61
2024/01/26 07:05:21;;;;;;;2.10;1.90;;;;;;;11.21;63.39;98817.30;108270;1253;60624;-61
2024/01/26 07:08:34;;;;;;;1.80;1.70;;;;;;;11.13;63.71;98824.81;107934;1253;59083;-61
2024/01/26 07:11:50;;;;;;;1.80;1.70;;;;;;;11.19;64.18;98828.49;108170;1254;73525;-63
2024/01/26 07:15:02;;;;;;;1.90;1.50;;;;;;;11.20;63.93;98829.46;108194;1253;69167;-65
2024/01/26 07:18:17;;;;;;;2.00;1.60;;;;;;;11.23;63.83;98831.24;108320;1252;73589;-65
2024/01/26 07:21:08;;;;;;;1.60;1.50;;;;;;;11.26;63.65;98837.33;108195;1253;59899;-64
2024/01/26 07:24:20;;;;;;;1.60;1.50;;;;;;;11.28;63.60;98843.17;108363;1252;59183;-64
2024/01/26 07:27:31;;;;;;;2.30;1.80;;;;;;;11.25;63.57;98852.88;108214;1253;73193;-64
2024/01/26 07:30:08;;;;;;;1.80;1.40;;;;;;;11.29;63.41;98858.59;108305;1253;69047;-64
2024/01/26 07:33:27;;;;;;;2.30;2.10;;;;;;;11.28;63.61;98862.70;108321;1253;71506;-63
2024/01/26 07:41:00;;;;;;;1.90;1.70;;;;;;;11.38;63.30;98864.56;108270;1254;60338;-62
2024/01/26 07:48:00;;;;;;;1.90;1.80;;;;;;;11.40;62.83;98868.85;108290;1252;69241;-62
2024/01/26 07:55:26;;;;;;;2.50;2.00;;;;;;;11.33;63.68;98889.60;108295;1253;60477;-62
2024/01/26 08:01:24;;;;;;;6.90;4.10;;;;;;;11.63;62.42;98898.00;108117;1253;72297;-62
2024/01/26 08:03:59;;;;;;;6.00;4.30;;;;;;;11.68;62.05;98900.69;108296;1253;69372;-63
2024/01/26 08:07:17;;;;;;;8.10;4.40;;;;;;;11.72;61.82;98905.57;108030;1253;71455;-62
2024/01/26 08:14:13;;;;;;;4.00;3.00;;;;;;;11.61;62.00;98916.73;108215;1253;58479;-61
2024/01/26 08:33:05;;;;;;;3.20;2.70;;;;;;;11.63;62.25;98936.64;108153;1253;58708;-62
2024/01/26 08:36:04;;;;;;;3.90;3.50;;;;;;;11.75;62.37;98936.84;108198;1253;72955;-62
2024/01/26 08:38:54;;;;;;;3.20;2.90;;;;;;;11.62;63.29;98938.79;108214;1253;70547;-62
2024/01/26 08:42:07;;;;;;;3.80;2.90;;;;;;;11.56;63.88;98942.13;107952;1254;72069;-62
2024/01/26 08:45:19;;;;;;;4.90;3.30;;;;;;;11.73;64.01;98941.48;108001;1253;60978;-62
2024/01/26 08:48:30;;;;;;;3.60;3.10;;;;;;;11.85;63.64;98944.64;108404;1252;60084;-62
2024/01/26 08:51:43;;;;;;;3.40;3.10;;;;;;;11.70;62.58;98950.95;108315;1252;72822;-62
2024/01/26 08:54:55;;;;;;;3.60;3.00;;;;;;;11.73;63.31;98952.25;108185;1252;69488;-61
2024/01/26 08:58:08;;;;;;;3.30;3.00;;;;;;;11.68;63.16;98954.42;107949;1253;71399;-61
2024/01/26 09:01:20;;;;;;;3.90;3.50;;;;;;;11.75;63.15;98951.60;107866;1254;60753;-61
2024/01/26 09:04:31;;;;;;;3.00;2.70;;;;;;;11.68;63.28;98951.27;108278;1253;61361;-60
2024/01/26 09:07:44;;;;;;;3.70;2.70;;;;;;;11.62;63.48;98954.27;108311;1253;72927;-61
2024/01/26 09:10:56;;;;;;;2.80;2.20;;;;;;;11.59;63.25;98957.75;107949;1252;70284;-60
2024/01/26 09:18:29;;;;;;;3.20;2.80;;;;;;;11.63;63.77;98958.38;108283;1253;60714;-61
2024/01/26 09:21:54;;;;;;;3.90;3.50;;;;;;;11.60;63.92;98961.23;108144;1252;59523;-60
2024/01/26 09:25:06;;;;;;;3.00;2.80;;;;;;;11.35;65.18;98967.04;108152;1253;72988;-62
2024/01/26 09:32:36;;;;;;;2.50;2.20;;;;;;;11.68;64.43;98971.60;108313;1252;72547;-62
2024/01/26 09:35:48;;;;;;;2.60;2.30;;;;;;;11.75;64.18;98971.28;108284;1253;60714;-61
2024/01/26 09:38:59;;;;;;;2.80;2.40;;;;;;;11.77;63.86;98967.41;108190;1252;59155;-63
2024/01/26 09:42:11;;;;;;;2.70;2.00;;;;;;;11.72;63.95;98969.85;108253;1253;73122;-63
2024/01/26 09:45:23;;;;;;;2.50;2.10;;;;;;;11.71;63.24;98972.67;108120;1253;69383;-62
2024/01/26 09:48:34;;;;;;;4.30;2.60;;;;;;;11.58;64.13;98975.36;108370;1252;72904;-62
2024/01/26 09:51:46;;;;;;;5.60;2.10;;;;;;;11.65;64.55;98973.55;108282;1253;59814;-63
2024/01/26 09:54:57;;;;;;;2.20;2.10;;;;;;;11.64;64.39;98975.74;108077;1253;60417;-62
2024/01/26 09:58:11;;;;;;;3.00;2.30;;;;;;;11.58;64.79;98975.54;108114;1253;75378;-63
2024/01/26 10:01:23;;;;;;;1.90;1.70;;;;;;;11.53;65.37;98975.66;108314;1253;70391;-64
2024/01/26 10:04:34;;;;;;;2.50;2.10;;;;;;;11.49;65.28;98977.98;108139;1252;73326;-63
2024/01/26 10:11:03;;;;;;;2.30;1.50;;;;;;;11.50;64.26;98976.36;108257;1253;58651;-67
2024/01/26 10:14:21;;;;;;;2.30;1.50;;;;;;;11.63;64.23;98979.29;108299;1253;71726;-64
2024/01/26 10:17:35;;;;;;;1.60;1.50;;;;;;;11.68;64.40;98983.41;108421;1253;69560;-63
2024/01/26 10:20:50;;;;;;;1.90;1.70;;;;;;;11.79;63.33;98986.83;108308;1253;72535;-63
2024/01/26 10:24:11;;;;;;;2.10;1.90;;;;;;;11.89;62.65;98988.15;108388;1253;60587;-64
2024/01/26 10:27:22;;;;;;;1.80;1.70;;;;;;;11.85;62.05;98988.77;108235;1252;59989;-65
2024/01/26 10:30:34;;;;;;;1.70;1.60;;;;;;;11.76;62.98;98991.88;108350;1251;71945;-63
2024/01/26 10:33:46;;;;;;;3.00;2.70;;;;;;;11.79;62.83;98990.50;108459;1251;70355;-65
2024/01/26 10:44:24;;;;;;;2.80;2.40;;;;;;;11.87;62.45;99000.44;108400;1253;59897;-63
2024/01/26 10:47:36;;;;;;;2.10;2.00;;;;;;;11.76;62.32;99004.88;108311;1252;73661;-62
2024/01/26 10:50:47;;;;;;;2.10;1.90;;;;;;;11.78;62.73;99010.56;108294;1252;69198;-61
2024/01/26 10:53:59;;;;;;;3.90;2.30;;;;;;;11.80;62.87;99011.34;108365;1253;74667;-61
2024/01/26 10:57:13;;;;;;;2.80;2.10;;;;;;;11.80;63.08;99013.98;108349;1253;61293;-62
2024/01/26 11:00:24;;;;;;;2.60;2.40;;;;;;;11.65;62.19;98992.88;108324;1251;61042;-61
2024/01/26 11:07:57;;;;;;;2.40;2.20;;;;;;;11.78;62.76;99018.30;108411;1252;69835;-61
2024/01/26 11:11:08;;;;;;;1.90;1.70;;;;;;;11.65;62.26;99022.53;108006;1254;73270;-61
2024/01/26 11:14:19;;;;;;;3.50;2.20;;;;;;;11.52;62.63;99021.20;108151;1253;61199;-64
2024/01/26 11:17:31;;;;;;;2.20;2.00;;;;;;;11.50;62.98;99030.55;108237;1254;62168;-63
2024/01/26 11:25:01;;;;;;;2.40;2.20;;;;;;;11.75;62.70;99035.67;108422;1253;69554;-62
2024/01/26 11:32:32;;;;;;;2.20;2.00;;;;;;;11.59;62.56;99044.16;108387;1253;61008;-64
2024/01/26 11:35:44;;;;;;;2.90;2.60;;;;;;;11.55;63.10;99046.27;108060;1254;58905;-63
2024/01/26 11:38:55;;;;;;;4.00;2.70;;;;;;;11.50;62.88;99047.59;108065;1252;72929;-63
2024/01/26 11:42:06;;;;;;;3.00;2.40;;;;;;;11.56;62.65;99047.27;108072;1253;70075;-64
2024/01/26 11:45:19;;;;;;;2.30;2.10;;;;;;;11.52;62.53;99054.36;108107;1253;71562;-63
2024/01/26 11:48:33;;;;;;;2.60;2.30;;;;;;;11.53;62.23;99054.32;108008;1255;60595;-63
2024/01/26 11:51:04;;;;;;;2.20;2.00;;;;;;;11.64;62.02;99057.38;108190;1254;59753;-63
2024/01/26 11:54:15;;;;;;;3.40;2.60;;;;;;;11.55;62.21;99058.39;108108;1253;73666;-65
2024/01/26 12:01:14;;;;;;;3.20;2.50;;;;;;;11.52;62.88;99065.73;108247;1254;72808;-63
2024/01/26 12:18:53;;;;;;;2.60;2.40;;;;;;;11.85;62.74;99074.44;108276;1253;72079;-63
2024/01/26 12:26:30;;;;;;;2.40;2.20;;;;;;;12.06;62.42;99088.68;108431;1252;59727;-64
2024/01/26 12:29:42;;;;;;;2.70;2.40;;;;;;;11.99;62.19;99093.35;108373;1252;73847;-63
2024/01/26 12:32:53;;;;;;;3.80;2.60;;;;;;;11.86;62.74;99096.84;108351;1252;69548;-64
2024/01/26 12:36:05;;;;;;;2.60;2.20;;;;;;;11.82;63.41;99103.60;108299;1253;71650;-63
2024/01/26 12:39:16;;;;;;;2.40;2.20;;;;;;;11.85;63.83;99102.73;108289;1253;61484;-63
2024/01/26 12:42:27;;;;;;;3.40;2.50;;;;;;;11.84;63.80;99113.67;108280;1251;61047;-62
2024/01/26 12:45:39;;;;;;;3.40;2.50;;;;;;;11.86;64.01;99120.54;108357;1253;74341;-62
2024/01/26 12:48:53;;;;;;;3.70;2.70;;;;;;;11.87;63.95;99122.95;108313;1251;70218;-63
2024/01/26 12:52:08;;;;;;;3.30;2.90;;;;;;;11.85;64.09;99124.63;108317;1253;71430;-63
2024/01/26 12:55:19;;;;;;;3.60;2.60;;;;;;;11.87;63.96;99127.19;108295;1254;59722;-64
2024/01/26 12:58:31;;;;;;;3.20;2.90;;;;;;;11.88;63.91;99129.41;108223;1253;60887;-63
2024/01/26 13:01:42;;;;;;;3.40;2.90;;;;;;;11.86;64.05;99131.80;108332;1251;72852;-65
2024/01/26 13:04:53;;;;;;;3.20;2.90;;;;;;;11.93;64.16;99133.93;108371;1254;68401;-66
2024/01/26 13:07:32;;;;;;;3.00;2.70;;;;;;;11.95;63.49;99130.48;108139;1253;72535;-67
2024/01/26 13:10:04;;;;;;;3.20;2.90;;;;;;;11.92;64.02;99131.86;107897;1253;60261;-66
2024/01/26 13:17:06;;;;;;;4.40;3.40;;;;;;;12.13;63.76;99139.23;108209;1253;73654;-66
2024/01/26 13:20:19;;;;;;;4.00;3.30;;;;;;;12.21;63.27;99144.27;108169;1254;69515;-69
2024/01/26 13:23:31;;;;;;;3.80;3.40;;;;;;;12.28;63.27;99147.02;108287;1254;71652;-67
2024/01/26 13:26:05;;;;;;;4.10;3.50;;;;;;;12.34;62.49;99149.33;108389;1253;60747;-66
2024/01/26 13:29:16;;;;;;;3.40;3.10;;;;;;;12.31;62.80;99151.27;108339;1252;59964;-68
2024/01/26 13:36:49;;;;;;;3.10;2.80;;;;;;;12.14;63.82;99156.59;108444;1251;69363;-67
2024/01/26 13:40:07;;;;;;;3.40;3.10;;;;;;;12.26;63.14;99161.88;108264;1252;72831;-61
2024/01/26 13:43:20;;;;;;;3.20;2.90;;;;;;;12.23;63.24;99164.02;108334;1253;61372;-61
2024/01/26 13:50:19;;;;;;;2.70;2.20;;;;;;;12.21;63.61;99169.93;108274;1253;75281;-65
2024/01/26 13:54:47;;;;;;;3.80;2.90;;;;;;;11.44;76.60;99170.46;101299;1293;607602;-63
2024/01/26 13:57:59;;;;;;;3.60;2.70;;;;;;;12.61;62.64;99168.13;103714;1285;60850;-64
2024/01/26 14:01:11;;;;;;;5.70;2.60;;;;;;;12.35;62.52;99171.55;103648;1272;60896;-61
2024/01/26 14:04:23;;;;;;;2.70;2.50;;;;;;;12.12;61.80;99178.69;103810;1268;72060;-63
2024/01/26 14:07:35;;;;;;;3.90;2.40;;;;;;;11.99;62.78;99183.27;98918;1263;6314451;-63
2024/01/26 14:14:22;;;;;;;2.20;2.10;;;;;;;11.94;63.35;99195.32;103655;1264;61051;-64
2024/01/26 14:17:34;;;;;;;2.50;2.30;;;;;;;11.89;63.05;99204.17;104201;1264;59749;-61
2024/01/26 14:20:51;;;;;;;3.40;2.70;;;;;;;11.80;63.66;99210.09;104047;1276;71421;-60
2024/01/26 14:24:04;;;;;;;2.60;2.40;;;;;;;11.78;64.01;99220.23;103763;1273;70214;-62
2024/01/26 14:31:40;;;;;;;6.10;3.20;;;;;;;11.76;64.29;99228.23;104316;1268;61305;-64
2024/01/26 14:34:52;;;;;;;4.10;3.20;;;;;;;11.71;63.70;99230.09;104482;1258;60938;-62
2024/01/26 14:38:04;;;;;;;5.70;4.00;;;;;;;11.70;63.91;99231.86;104297;1260;73189;-62
2024/01/26 14:40:32;;;;;;;5.60;3.40;;;;;;;11.68;64.04;99234.63;104234;1267;69813;-62
2024/01/26 14:46:56;;;;;;;3.30;3.00;;;;;;;11.59;64.81;99234.74;104483;1258;60772;-63
2024/01/26 14:53:56;;;;;;;3.80;3.50;;;;;;;11.53;64.34;99243.66;104666;1259;73868;-62
2024/01/26 14:57:09;;;;;;;3.50;3.20;;;;;;;11.46;65.07;99246.50;104569;1261;70250;-63
2024/01/26 15:00:24;;;;;;;4.50;3.80;;;;;;;11.42;65.13;99248.98;104491;1257;73149;-61
2024/01/26 15:03:36;;;;;;;3.50;3.20;;;;;;;11.44;65.53;99255.55;104529;1274;59810;-61
2024/01/26 15:06:48;;;;;;;3.50;2.80;;;;;;;11.46;65.81;99258.45;104368;1273;60533;-63
2024/01/26 15:13:49;;;;;;;4.30;2.80;;;;;;;11.53;64.85;99269.65;105212;1254;69712;-62
2024/01/26 15:17:02;;;;;;;3.00;2.70;;;;;;;11.51;64.72;99274.85;105337;1253;71700;-68
2024/01/26 15:20:17;;;;;;;2.70;2.50;;;;;;;11.47;64.55;99279.44;104745;1255;59890;-65
2024/01/26 15:23:29;;;;;;;2.80;2.60;;;;;;;11.25;65.10;99284.07;104555;1257;59837;-66
2024/01/26 15:26:04;;;;;;;3.20;2.80;;;;;;;11.15;66.02;99283.73;104489;1253;73301;-67
2024/01/26 15:29:17;;;;;;;2.50;2.30;;;;;;;11.14;66.11;99285.17;104529;1257;69477;-66
2024/01/26 15:32:28;;;;;;;2.20;2.00;;;;;;;11.13;66.01;99288.73;105027;1257;71758;-68
2024/01/26 15:35:40;;;;;;;3.00;2.70;;;;;;;11.08;66.38;99290.03;104920;1256;61123;-68
2024/01/26 15:38:53;;;;;;;3.40;2.70;;;;;;;11.14;66.28;99293.56;104735;1258;59734;-68
2024/01/26 15:42:06;;;;;;;4.00;3.50;;;;;;;11.04;66.46;99299.52;104625;1275;72157;-65
2024/01/26 15:45:19;;;;;;;3.60;3.30;;;;;;;10.96;67.17;99299.91;104371;1254;69603;-66
2024/01/26 15:48:34;;;;;;;4.00;3.60;;;;;;;10.90;67.47;99287.98;105174;1252;73923;-63
2024/01/26 15:56:07;;;;;;;9.30;6.10;;;;;;;10.93;67.59;99311.66;104674;1257;62830;-62
2024/01/26 15:59:19;;;;;;;12.30;7.40;;;;;;;10.88;67.99;99314.52;104854;1253;73013;-62
2024/01/26 16:02:31;;;;;;;9.30;6.30;;;;;;;10.91;68.31;99318.25;104979;1256;72350;-62
2024/01/26 16:05:43;;;;;;;6.00;5.10;;;;;;;10.87;68.13;99322.84;104439;1258;71579;-60
2024/01/26 16:08:55;;;;;;;5.50;4.20;;;;;;;10.87;68.16;99320.91;105509;1255;60917;-60
2024/01/26 16:12:07;;;;;;;5.90;5.00;;;;;;;10.96;68.15;99325.34;104593;1253;59769;-61
2024/01/26 16:15:20;;;;;;;4.90;4.00;;;;;;;11.02;67.72;99327.86;104637;1257;71943;-62
2024/01/26 16:18:19;;;;;;;3.50;3.20;;;;;;;11.00;67.48;99330.97;104728;1257;70416;-61
2024/01/26 16:21:07;;;;;;;4.10;3.60;;;;;;;10.83;68.17;99331.77;104356;1253;72244;-62
2024/01/26 16:24:22;;;;;;;3.90;3.30;;;;;;;10.88;68.57;99336.23;104350;1257;60576;-63
2024/01/26 16:27:36;;;;;;;4.60;3.70;;;;;;;10.90;68.59;99335.80;104631;1253;59721;-61
2024/01/26 16:30:48;;;;;;;5.90;4.50;;;;;;;10.86;68.66;99341.06;104858;1257;72870;-62
2024/01/26 16:34:00;;;;;;;7.90;5.20;;;;;;;10.83;69.20;99344.39;104327;1258;68329;-61
2024/01/26 16:37:11;;;;;;;5.50;3.90;;;;;;;10.84;69.28;99344.89;104720;1253;72482;-61
2024/01/26 16:40:26;;;;;;;7.60;4.90;;;;;;;10.80;69.78;99345.45;104607;1275;59775;-61
2024/01/26 16:43:38;;;;;;;5.20;4.40;;;;;;;10.80;70.19;99344.35;104387;1254;60511;-61
2024/01/26 16:46:50;;;;;;;4.50;4.00;;;;;;;10.76;70.55;99347.21;105265;1255;73179;-62
2024/01/26 16:50:03;;;;;;;5.00;3.70;;;;;;;10.77;70.20;99348.70;105680;1254;69862;-63
2024/01/26 16:53:15;;;;;;;3.60;3.30;;;;;;;10.83;70.00;99350.19;104323;1261;72736;-63
2024/01/26 16:56:14;;;;;;;6.30;4.70;;;;;;;10.84;69.88;99352.58;104931;1270;59688;-63
2024/01/26 16:59:26;;;;;;;4.90;3.70;;;;;;;10.82;69.74;99350.90;104492;1252;59673;-61
2024/01/26 17:02:38;;;;;;;3.70;3.30;;;;;;;10.83;69.94;99350.70;104938;1257;72296;-61
2024/01/26 17:05:51;;;;;;;4.10;3.00;;;;;;;10.72;69.95;99349.69;104631;1254;69749;-62
2024/01/26 17:09:04;;;;;;;3.40;3.10;;;;;;;10.66;70.62;99354.70;104583;1255;71561;-60
2024/01/26 17:12:17;;;;;;;4.60;3.40;;;;;;;10.64;70.44;99346.88;104672;1258;60588;-61
2024/01/26 17:15:29;;;;;;;3.10;2.60;;;;;;;10.73;70.45;99362.23;105018;1253;59749;-61
2024/01/26 17:18:44;;;;;;;3.20;3.00;;;;;;;10.71;70.34;99358.33;104327;1259;75828;-61
2024/01/26 17:22:00;;;;;;;2.70;2.50;;;;;;;10.74;69.37;99360.42;104362;1262;69248;-61
2024/01/26 17:25:03;;;;;;;2.70;2.50;;;;;;;10.70;69.05;99363.79;105712;1253;72485;-61
2024/01/26 17:27:34;;;;;;;3.20;2.90;;;;;;;10.67;69.78;99363.92;105708;1254;64231;-62
2024/01/26 17:34:17;;;;;;;3.10;2.80;;;;;;;10.78;69.50;99366.55;104611;1276;72924;-60
2024/01/26 17:41:50;;;;;;;3.60;2.70;;;;;;;10.69;70.05;99358.36;104762;1258;74088;-59
2024/01/26 17:45:08;;;;;;;2.90;2.70;;;;;;;10.69;69.51;99360.15;105915;1253;61180;-60
2024/01/26 17:48:20;;;;;;;4.30;2.80;;;;;;;10.66;70.10;99359.21;104413;1260;59675;-60
2024/01/26 17:55:22;;;;;;;3.60;2.90;;;;;;;10.56;69.87;99359.52;104625;1256;69309;-60
2024/01/26 17:58:38;;;;;;;3.40;3.00;;;;;;;10.55;70.49;99356.80;105241;1257;72514;-61
2024/01/26 18:01:53;;;;;;;3.20;2.90;;;;;;;10.55;70.81;99359.96;105373;1254;60817;-61
2024/01/26 18:05:05;;;;;;;4.40;3.70;;;;;;;10.46;71.43;99358.58;104407;1257;60924;-60
2024/01/26 18:08:17;;;;;;;3.50;3.20;;;;;;;10.54;71.62;99356.30;104427;1261;73000;-61
2024/01/26 18:11:30;;;;;;;3.20;2.90;;;;;;;10.59;71.31;99351.33;104525;1253;69414;-61
2024/01/26 18:18:16;;;;;;;3.10;2.70;;;;;;;10.74;69.95;99350.98;105345;1256;60739;-62
2024/01/26 18:21:32;;;;;;;3.70;3.30;;;;;;;10.76;69.37;99350.15;104891;1253;59752;-61
2024/01/26 18:24:48;;;;;;;5.90;3.10;;;;;;;10.75;69.54;99349.89;105430;1254;73096;-62
2024/01/26 18:28:00;;;;;;;4.70;3.60;;;;;;;10.75;69.99;99355.33;105450;1254;69576;-61
2024/01/26 18:31:05;;;;;;;4.30;3.60;;;;;;;10.76;70.19;99353.52;105265;1257;73154;-62
2024/01/26 18:34:19;;;;;;;4.60;3.70;;;;;;;10.80;69.66;99347.00;104298;1260;60998;-62
2024/01/26 18:37:32;;;;;;;4.10;3.70;;;;;;;10.81;69.68;99345.56;104722;1255;60456;-62
2024/01/26 18:40:44;;;;;;;5.70;4.10;;;;;;;10.82;69.80;99342.53;104481;1259;75770;-62
2024/01/26 18:43:57;;;;;;;3.90;3.50;;;;;;;10.71;70.05;99340.60;104912;1255;72122;-61
2024/01/26 18:46:28;;;;;;;3.80;3.40;;;;;;;10.55;70.61;99333.80;105373;1256;74620;-62
2024/01/26 18:49:44;;;;;;;4.90;4.00;;;;;;;10.61;71.01;99347.20;105058;1258;63490;-63
2024/01/26 18:52:56;;;;;;;5.10;3.90;;;;;;;10.58;71.09;99346.65;104997;1271;59997;-63
2024/01/26 18:56:05;;;;;;;3.90;3.50;;;;;;;10.53;71.30;99348.10;104934;1257;73970;-59
2024/01/26 18:59:16;;;;;;;4.30;3.90;;;;;;;10.57;71.80;99347.19;106243;1257;68198;-59
2024/01/26 19:02:29;;;;;;;5.80;4.20;;;;;;;10.65;71.62;99346.15;105907;1253;71687;-60
2024/01/26 19:05:35;;;;;;;4.70;4.10;;;;;;;10.68;71.40;99345.96;104940;1257;62311;-60
2024/01/26 19:08:47;;;;;;;4.70;4.30;;;;;;;10.69;71.45;99345.77;104802;1253;59837;-62
2024/01/26 19:16:19;;;;;;;4.90;3.70;;;;;;;10.78;70.98;99348.54;104743;1256;70902;-61
2024/01/26 19:19:32;;;;;;;4.00;3.40;;;;;;;10.75;71.16;99350.89;105360;1253;71788;-62
2024/01/26 19:22:45;;;;;;;4.40;4.00;;;;;;;10.78;70.79;99350.09;104845;1258;60713;-60
2024/01/26 19:25:57;;;;;;;4.90;4.00;;;;;;;10.74;71.10;99353.27;105872;1254;59966;-60
2024/01/26 19:29:02;;;;;;;5.10;4.10;;;;;;;10.79;69.78;99357.38;105093;1258;74488;-60
2024/01/26 19:32:14;;;;;;;4.50;4.00;;;;;;;10.67;70.74;99356.20;104738;1253;68303;-61
2024/01/26 19:35:27;;;;;;;4.50;3.90;;;;;;;10.68;71.10;99361.23;105841;1255;73009;-60
2024/01/26 19:38:40;;;;;;;3.80;3.40;;;;;;;10.67;70.86;99360.95;105097;1256;60828;-60
2024/01/26 19:41:51;;;;;;;4.40;4.00;;;;;;;10.67;71.01;99363.42;106028;1257;60532;-62
2024/01/26 19:45:04;;;;;;;4.50;4.00;;;;;;;10.71;70.99;99362.01;105060;1258;74298;-61
2024/01/26 19:48:17;;;;;;;3.90;3.60;;;;;;;10.76;70.66;99365.08;104566;1253;70129;-62
2024/01/26 19:51:05;;;;;;;4.20;3.80;;;;;;;10.73;70.73;99368.02;104541;1254;73582;-61
2024/01/26 19:54:18;;;;;;;4.50;4.10;;;;;;;10.76;70.36;99370.15;105411;1253;61216;-61
2024/01/26 20:01:52;;;;;;;3.90;3.60;;;;;;;10.67;70.91;99370.73;104981;1253;75326;-63
2024/01/26 20:09:24;;;;;;;5.20;4.70;;;;;;;10.54;71.72;99367.69;104571;1254;74010;-61
2024/01/26 20:12:00;;;;;;;5.20;4.70;;;;;;;10.56;72.06;99368.30;104657;1257;60981;-61
2024/01/26 20:14:34;;;;;;;7.50;5.50;;;;;;;10.57;71.97;99370.70;104658;1265;60465;-61
2024/01/26 20:17:47;;;;;;;7.20;5.50;;;;;;;10.60;71.28;99373.37;105053;1254;74298;-61
2024/01/26 20:21:04;;;;;;;6.30;5.30;;;;;;;10.60;71.16;99367.92;105775;1256;69107;-62
2024/01/26 20:24:17;;;;;;;8.20;6.70;;;;;;;10.58;71.42;99371.86;104865;1258;72136;-61
2024/01/26 20:31:58;;;;;;;6.90;5.80;;;;;;;10.63;71.18;99375.84;104842;1256;61579;-60
2024/01/26 20:35:10;;;;;;;7.50;6.20;;;;;;;10.61;71.26;99374.02;104849;1256;77135;-61
2024/01/26 20:42:14;;;;;;;5.80;5.20;;;;;;;10.61;70.99;99372.48;104710;1259;71956;-63
2024/01/26 20:45:24;;;;;;;5.30;4.80;;;;;;;10.75;70.66;99370.36;104598;1253;60915;-62
2024/01/26 20:48:37;;;;;;;6.90;5.50;;;;;;;10.63;70.63;99369.35;105187;1256;60615;-62
2024/01/26 20:51:50;;;;;;;5.70;5.00;;;;;;;10.64;70.72;99372.66;105002;1258;74274;-62
2024/01/26 20:54:25;;;;;;;5.80;5.00;;;;;;;10.58;70.80;99366.46;104656;1258;69317;-62
2024/01/26 20:57:06;;;;;;;5.30;4.60;;;;;;;10.58;70.90;99364.70;105006;1258;73251;-63
2024/01/26 21:00:20;;;;;;;5.40;4.30;;;;;;;10.50;71.29;99362.60;105047;1257;62091;-64
2024/01/26 21:03:33;;;;;;;4.70;4.20;;;;;;;10.48;71.77;99361.66;105162;1255;60572;-62
2024/01/26 21:06:47;;;;;;;4.70;4.30;;;;;;;10.44;72.44;99360.98;104660;1252;73967;-62
2024/01/26 21:10:00;;;;;;;5.20;4.70;;;;;;;10.46;72.57;99365.42;104986;1253;68531;-61
2024/01/26 21:13:12;;;;;;;5.40;4.90;;;;;;;10.51;72.04;99368.67;104339;1276;71719;-64
2024/01/26 21:16:06;;;;;;;8.70;5.30;;;;;;;10.52;72.33;99366.56;104602;1264;61283;-65
2024/01/26 21:19:19;;;;;;;6.30;5.30;;;;;;;10.47;71.97;99364.14;104838;1258;60505;-64
2024/01/26 21:22:32;;;;;;;5.40;4.90;;;;;;;10.49;72.22;99359.86;104257;1263;72645;-65
2024/01/26 21:25:44;;;;;;;5.10;4.60;;;;;;;10.55;71.62;99358.34;104918;1259;69160;-63
2024/01/26 21:28:56;;;;;;;5.50;4.90;;;;;;;10.56;71.79;99358.31;104286;1269;71866;-63
2024/01/26 21:32:12;;;;;;;4.90;4.50;;;;;;;10.55;71.62;99358.54;104547;1254;60809;-64
2024/01/26 21:35:24;;;;;;;6.40;4.70;;;;;;;10.59;71.21;99361.14;104332;1261;60476;-63
2024/01/26 21:38:39;;;;;;;5.20;4.70;;;;;;;10.55;71.20;99362.56;104929;1258;73671;-64
2024/01/26 21:41:29;;;;;;;6.80;5.90;;;;;;;10.52;71.57;99359.35;104772;1271;69694;-63
2024/01/26 21:44:41;;;;;;;8.80;6.40;;;;;;;10.49;71.62;99357.56;104532;1265;73061;-63
2024/01/26 21:47:53;;;;;;;8.10;5.90;;;;;;;10.62;71.50;99356.80;104542;1261;60899;-63
2024/01/26 21:51:06;;;;;;;7.50;5.80;;;;;;;10.84;69.79;99354.50;104804;1257;60103;-64
2024/01/26 21:54:18;;;;;;;5.50;5.00;;;;;;;10.87;69.06;99352.45;104786;1253;73587;-61